Time,TemperatureF,DewpointF,PressureIn,WindDirection,WindDirectionDegrees,WindSpeedMPH,WindSpeedGustMPH,Humidity,HourlyPrecipIn,Conditions,Clouds,dailyrainin,SoftwareType,DateUTC
2013-02-13 00:01:00,29.8,2.2,23.98,WSW,258,3.6,8.3,30,0.00,,---,0.00,VWS V14.01,2013-02-13 07:01:00,
2013-02-13 00:07:00,30.0,2.3,23.98,West,267,8.1,8.1,30,0.00,,---,0.00,VWS V14.01,2013-02-13 07:07:00,
2013-02-13 00:12:00,29.8,2.2,23.98,SSW,211,3.1,3.1,30,0.00,,---,0.00,VWS V14.01,2013-02-13 07:12:00,
2013-02-13 00:18:00,29.7,2.0,23.98,SW,214,6.3,6.3,30,0.00,,---,0.00,VWS V14.01,2013-02-13 07:18:00,
2013-02-13 00:24:00,29.7,2.0,23.98,North,353,5.4,7.2,30,0.00,,---,0.00,VWS V14.01,2013-02-13 07:24:00,
2013-02-13 00:29:00,29.7,2.0,23.98,NW,311,5.4,5.4,30,0.00,,---,0.00,VWS V14.01,2013-02-13 07:29:00,
2013-02-13 00:34:00,29.8,2.2,23.98,SSW,207,4.0,4.0,30,0.00,,---,0.00,VWS V14.01,2013-02-13 07:34:00,
2013-02-13 00:40:00,29.8,2.2,23.98,WSW,239,3.1,4.0,30,0.00,,---,0.00,VWS V14.01,2013-02-13 07:40:00,
2013-02-13 00:45:00,29.7,2.0,23.98,NW,307,4.0,5.8,30,0.00,,---,0.00,VWS V14.01,2013-02-13 07:45:00,
2013-02-13 00:51:00,29.5,1.9,23.98,ENE,60,3.6,4.0,30,0.00,,---,0.00,VWS V14.01,2013-02-13 07:51:00,
2013-02-13 00:57:00,29.5,1.9,23.98,East,91,3.1,6.3,30,0.00,,---,0.00,VWS V14.01,2013-02-13 07:57:00,
2013-02-13 01:07:00,29.8,2.2,23.98,NW,310,2.7,3.6,30,0.00,,---,0.00,VWS V14.01,2013-02-13 08:07:00,
2013-02-13 01:13:00,29.8,2.2,23.95,NW,325,2.7,8.1,30,0.00,,---,0.00,VWS V14.01,2013-02-13 08:13:00,
2013-02-13 01:18:00,29.8,2.2,23.95,SE,135,2.7,5.8,30,0.00,,---,0.00,VWS V14.01,2013-02-13 08:18:00,
2013-02-13 01:23:00,29.7,2.0,23.95,South,177,0.0,3.1,30,0.00,,---,0.00,VWS V14.01,2013-02-13 08:23:00,
2013-02-13 01:28:00,29.8,2.2,23.95,South,181,3.1,12.3,30,0.00,,---,0.00,VWS V14.01,2013-02-13 08:28:00,
2013-02-13 01:33:00,30.0,2.3,23.95,SW,223,3.6,4.0,30,0.00,,---,0.00,VWS V14.01,2013-02-13 08:33:00,
2013-02-13 01:39:00,30.2,2.5,23.95,NE,47,2.7,8.7,30,0.00,,---,0.00,VWS V14.01,2013-02-13 08:39:00,
2013-02-13 01:45:00,30.2,3.2,23.95,NW,324,3.6,4.0,31,0.00,,---,0.00,VWS V14.01,2013-02-13 08:45:00,
2013-02-13 01:51:00,30.0,3.1,23.95,SE,146,0.0,3.1,31,0.00,,---,0.00,VWS V14.01,2013-02-13 08:51:00,
2013-02-13 01:57:00,30.2,3.2,23.95,West,281,4.0,8.7,31,0.00,,---,0.00,VWS V14.01,2013-02-13 08:57:00,
2013-02-13 02:03:00,30.6,2.8,23.95,North,349,2.2,8.1,30,0.00,,---,0.00,VWS V14.01,2013-02-13 09:03:00,
2013-02-13 02:08:00,30.6,2.8,23.95,SE,136,3.1,5.8,30,0.00,,---,0.00,VWS V14.01,2013-02-13 09:08:00,
2013-02-13 02:14:00,30.6,2.8,23.95,East,80,2.7,5.4,30,0.00,,---,0.00,VWS V14.01,2013-02-13 09:14:00,
2013-02-13 02:19:00,30.6,2.8,23.95,SW,228,2.2,8.3,30,0.00,,---,0.00,VWS V14.01,2013-02-13 09:19:00,
2013-02-13 02:24:00,30.6,2.8,23.95,West,265,0.0,4.0,30,0.00,,---,0.00,VWS V14.01,2013-02-13 09:24:00,
2013-02-13 02:29:00,30.6,2.8,23.95,SSE,156,3.1,5.4,30,0.00,,---,0.00,VWS V14.01,2013-02-13 09:29:00,
2013-02-13 02:35:00,30.2,3.2,23.95,South,171,0.0,3.6,31,0.00,,---,0.00,VWS V14.01,2013-02-13 09:35:00,
2013-02-13 02:40:00,30.0,3.1,23.92,SSW,206,0.0,2.2,31,0.00,,---,0.00,VWS V14.01,2013-02-13 09:40:00,
2013-02-13 02:45:00,30.4,2.7,23.92,NW,317,2.7,4.9,30,0.00,,---,0.00,VWS V14.01,2013-02-13 09:45:00,
2013-02-13 02:50:00,30.7,3.0,23.92,SSE,156,2.7,3.6,30,0.00,,---,0.00,VWS V14.01,2013-02-13 09:50:00,
2013-02-13 02:56:00,30.7,3.0,23.92,South,181,3.6,5.8,30,0.00,,---,0.00,VWS V14.01,2013-02-13 09:56:00,
2013-02-13 03:01:00,30.4,2.7,23.92,SE,127,2.2,7.2,30,0.00,,---,0.00,VWS V14.01,2013-02-13 10:01:00,
2013-02-13 03:07:00,29.8,2.9,23.92,WNW,302,3.6,4.0,31,0.00,,---,0.00,VWS V14.01,2013-02-13 10:07:00,
2013-02-13 03:13:00,30.2,3.2,23.92,WSW,244,3.1,4.0,31,0.00,,---,0.00,VWS V14.01,2013-02-13 10:13:00,
2013-02-13 03:18:00,30.6,2.8,23.92,South,191,4.0,4.0,30,0.00,,---,0.00,VWS V14.01,2013-02-13 10:18:00,
2013-02-13 03:23:00,30.6,2.8,23.92,ENE,70,4.0,5.4,30,0.00,,---,0.00,VWS V14.01,2013-02-13 10:23:00,
2013-02-13 03:28:00,30.7,3.0,23.92,West,274,4.0,8.3,30,0.00,,---,0.00,VWS V14.01,2013-02-13 10:28:00,
2013-02-13 03:35:00,30.9,3.1,23.92,WNW,288,2.7,3.1,30,0.00,,---,0.00,VWS V14.01,2013-02-13 10:35:00,
2013-02-13 03:41:00,30.9,3.1,23.92,SSW,210,2.2,3.6,30,0.00,,---,0.00,VWS V14.01,2013-02-13 10:41:00,
2013-02-13 03:46:00,31.3,3.5,23.92,SW,230,2.7,3.6,30,0.00,,---,0.00,VWS V14.01,2013-02-13 10:46:00,
2013-02-13 03:51:00,31.3,3.5,23.92,South,172,0.0,3.1,30,0.00,,---,0.00,VWS V14.01,2013-02-13 10:51:00,
2013-02-13 03:57:00,31.1,3.3,23.92,SSW,192,5.4,9.2,30,0.00,,---,0.00,VWS V14.01,2013-02-13 10:57:00,
2013-02-13 04:02:00,31.3,3.5,23.92,WNW,283,5.4,5.4,30,0.00,,---,0.00,VWS V14.01,2013-02-13 11:02:00,
2013-02-13 04:07:00,31.5,3.6,23.92,SW,222,6.3,6.3,30,0.00,,---,0.00,VWS V14.01,2013-02-13 11:07:00,
2013-02-13 04:12:00,31.6,3.8,23.92,East,98,3.6,6.3,30,0.00,,---,0.00,VWS V14.01,2013-02-13 11:12:00,
2013-02-13 04:18:00,31.8,3.9,23.92,West,264,2.2,7.6,30,0.00,,---,0.00,VWS V14.01,2013-02-13 11:18:00,
2013-02-13 04:23:00,32.0,4.1,23.92,WNW,287,5.8,5.8,30,0.00,,---,0.00,VWS V14.01,2013-02-13 11:23:00,
2013-02-13 04:28:00,31.8,3.9,23.92,South,189,5.4,5.4,30,0.00,,---,0.00,VWS V14.01,2013-02-13 11:28:00,
2013-02-13 04:33:00,31.6,3.8,23.92,SSW,208,4.0,5.8,30,0.00,,---,0.00,VWS V14.01,2013-02-13 11:33:00,
2013-02-13 04:38:00,31.6,3.8,23.92,ENE,64,6.3,6.3,30,0.00,,---,0.00,VWS V14.01,2013-02-13 11:38:00,
2013-02-13 04:43:00,31.6,3.8,23.92,North,11,3.6,5.4,30,0.00,,---,0.00,VWS V14.01,2013-02-13 11:43:00,
2013-02-13 04:49:00,31.6,3.8,23.92,NW,310,2.7,8.3,30,0.00,,---,0.00,VWS V14.01,2013-02-13 11:49:00,
2013-02-13 04:55:00,31.6,3.8,23.92,SSE,153,3.1,3.1,30,0.00,,---,0.00,VWS V14.01,2013-02-13 11:55:00,
2013-02-13 05:01:00,31.5,3.6,23.92,WSW,239,4.0,8.1,30,0.00,,---,0.00,VWS V14.01,2013-02-13 12:01:00,
2013-02-13 05:07:00,31.8,3.9,23.92,WNW,283,2.7,6.3,30,0.00,,---,0.00,VWS V14.01,2013-02-13 12:07:00,
2013-02-13 05:12:00,32.0,4.1,23.92,WNW,284,7.2,7.2,30,0.00,,---,0.00,VWS V14.01,2013-02-13 12:12:00,
2013-02-13 05:17:00,32.0,4.1,23.92,WNW,291,4.9,5.4,30,0.00,,---,0.00,VWS V14.01,2013-02-13 12:17:00,
2013-02-13 05:23:00,31.8,3.9,23.92,SSE,152,2.7,4.0,30,0.00,,---,0.00,VWS V14.01,2013-02-13 12:23:00,
2013-02-13 05:28:00,31.8,3.9,23.92,NNW,327,7.6,7.6,30,0.00,,---,0.00,VWS V14.01,2013-02-13 12:28:00,
2013-02-13 05:34:00,32.2,4.2,23.92,NNW,344,4.0,10.1,30,0.00,,---,0.00,VWS V14.01,2013-02-13 12:34:00,
2013-02-13 05:40:00,32.2,4.2,23.92,South,183,5.8,5.8,30,0.00,,---,0.00,VWS V14.01,2013-02-13 12:40:00,
2013-02-13 05:46:00,32.2,4.2,23.92,North,2,3.6,8.3,30,0.00,,---,0.00,VWS V14.01,2013-02-13 12:46:00,
2013-02-13 05:52:00,32.2,4.2,23.92,West,264,5.4,7.6,30,0.00,,---,0.00,VWS V14.01,2013-02-13 12:52:00,
2013-02-13 05:57:00,32.4,4.4,23.89,SSE,161,3.6,4.9,30,0.00,,---,0.00,VWS V14.01,2013-02-13 12:57:00,
2013-02-13 06:03:00,32.2,4.2,23.89,SSE,160,3.1,6.3,30,0.00,,---,0.00,VWS V14.01,2013-02-13 13:03:00,
2013-02-13 06:09:00,32.2,4.2,23.89,West,276,5.4,11.4,30,0.00,,---,0.00,VWS V14.01,2013-02-13 13:09:00,
2013-02-13 06:15:00,32.4,4.4,23.89,SSW,213,2.7,9.2,30,0.00,,---,0.00,VWS V14.01,2013-02-13 13:15:00,
2013-02-13 06:20:00,32.4,4.4,23.89,WSW,241,8.1,14.1,30,0.00,,---,0.00,VWS V14.01,2013-02-13 13:20:00,
2013-02-13 06:26:00,32.5,4.6,23.89,SW,236,3.1,4.5,30,0.00,,---,0.00,VWS V14.01,2013-02-13 13:26:00,
2013-02-13 06:31:00,32.5,4.6,23.89,SSE,148,4.0,4.0,30,0.00,,---,0.00,VWS V14.01,2013-02-13 13:31:00,
2013-02-13 06:37:00,32.4,4.4,23.89,WNW,302,5.8,6.3,30,0.00,,---,0.00,VWS V14.01,2013-02-13 13:37:00,
2013-02-13 06:43:00,32.4,4.4,23.89,WSW,257,2.7,8.7,30,0.00,,---,0.00,VWS V14.01,2013-02-13 13:43:00,
2013-02-13 06:49:00,32.2,4.2,23.89,NW,325,3.1,5.8,30,0.00,,---,0.00,VWS V14.01,2013-02-13 13:49:00,
2013-02-13 06:55:00,32.2,4.2,23.89,NW,304,8.1,12.3,30,0.00,,---,0.00,VWS V14.01,2013-02-13 13:55:00,
2013-02-13 07:01:00,32.4,4.4,23.89,WSW,257,4.9,4.9,30,0.00,,---,0.00,VWS V14.01,2013-02-13 14:01:00,
2013-02-13 07:06:00,32.5,4.6,23.89,NW,319,8.3,11.0,30,0.00,,---,0.00,VWS V14.01,2013-02-13 14:06:00,
2013-02-13 07:12:00,32.5,4.6,23.89,SE,128,3.1,6.3,30,0.00,,---,0.00,VWS V14.01,2013-02-13 14:12:00,
2013-02-13 07:18:00,32.5,4.6,23.89,ESE,117,4.0,6.7,30,0.00,,---,0.00,VWS V14.01,2013-02-13 14:18:00,
2013-02-13 07:24:00,32.5,4.6,23.89,WNW,282,6.3,6.3,30,0.00,,---,0.00,VWS V14.01,2013-02-13 14:24:00,
2013-02-13 07:29:00,32.7,4.7,23.92,SSW,196,4.9,7.6,30,0.00,,---,0.00,VWS V14.01,2013-02-13 14:29:00,
2013-02-13 07:35:00,32.7,4.7,23.92,East,96,4.0,5.8,30,0.00,,---,0.00,VWS V14.01,2013-02-13 14:35:00,
2013-02-13 07:41:00,32.9,4.9,23.92,ESE,114,0.0,5.8,30,0.00,,---,0.00,VWS V14.01,2013-02-13 14:41:00,
2013-02-13 07:47:00,33.3,5.2,23.92,SSE,158,3.1,4.0,30,0.00,,---,0.00,VWS V14.01,2013-02-13 14:47:00,
2013-02-13 07:52:00,33.6,5.5,23.92,SW,236,3.1,4.0,30,0.00,,---,0.00,VWS V14.01,2013-02-13 14:52:00,
2013-02-13 07:58:00,34.0,5.8,23.92,West,276,5.4,5.4,30,0.00,,---,0.00,VWS V14.01,2013-02-13 14:58:00,
2013-02-13 08:03:00,34.0,5.8,23.92,West,281,5.8,8.7,30,0.00,,---,0.00,VWS V14.01,2013-02-13 15:03:00,
2013-02-13 08:09:00,34.3,6.1,23.92,WSW,244,6.3,8.3,30,0.00,,---,0.00,VWS V14.01,2013-02-13 15:09:00,
2013-02-13 08:15:00,34.3,6.1,23.92,West,276,4.0,5.4,30,0.00,,---,0.00,VWS V14.01,2013-02-13 15:15:00,
2013-02-13 08:21:00,34.2,6.0,23.92,West,281,7.2,7.2,30,0.00,,---,0.00,VWS V14.01,2013-02-13 15:21:00,
2013-02-13 08:27:00,34.3,6.1,23.92,WNW,295,5.4,7.6,30,0.00,,---,0.00,VWS V14.01,2013-02-13 15:27:00,
2013-02-13 08:32:00,34.3,6.1,23.92,SW,234,3.1,4.0,30,0.00,,---,0.00,VWS V14.01,2013-02-13 15:32:00,
2013-02-13 08:38:00,34.3,6.1,23.92,ESE,102,3.1,4.0,30,0.00,,---,0.00,VWS V14.01,2013-02-13 15:38:00,
2013-02-13 08:44:00,34.5,6.3,23.92,WSW,240,3.1,6.3,30,0.00,,---,0.00,VWS V14.01,2013-02-13 15:44:00,
2013-02-13 08:50:00,35.1,6.8,23.92,SW,234,6.3,6.3,30,0.00,,---,0.00,VWS V14.01,2013-02-13 15:50:00,
2013-02-13 08:56:00,35.8,6.7,23.89,SW,227,8.7,18.3,29,0.00,,---,0.00,VWS V14.01,2013-02-13 15:56:00,
2013-02-13 09:01:00,36.3,7.1,23.89,SSW,198,5.8,7.6,29,0.00,,---,0.00,VWS V14.01,2013-02-13 16:01:00,
2013-02-13 09:07:00,36.7,7.4,23.89,North,357,6.3,7.2,29,0.00,,---,0.00,VWS V14.01,2013-02-13 16:07:00,
2013-02-13 09:13:00,36.9,7.6,23.92,South,179,4.9,15.0,29,0.00,,---,0.00,VWS V14.01,2013-02-13 16:13:00,
2013-02-13 09:18:00,36.5,7.3,23.92,NW,323,8.1,17.4,29,0.00,,---,0.00,VWS V14.01,2013-02-13 16:18:00,
2013-02-13 09:23:00,36.7,7.4,23.92,WSW,252,7.2,7.2,29,0.00,,---,0.00,VWS V14.01,2013-02-13 16:23:00,
2013-02-13 09:29:00,36.7,7.4,23.92,NW,316,8.1,8.1,29,0.00,,---,0.00,VWS V14.01,2013-02-13 16:29:00,
2013-02-13 09:34:00,36.9,7.6,23.92,WSW,245,3.6,8.1,29,0.00,,---,0.00,VWS V14.01,2013-02-13 16:34:00,
2013-02-13 09:40:00,36.7,7.4,23.92,NW,315,3.1,13.2,29,0.00,,---,0.00,VWS V14.01,2013-02-13 16:40:00,
2013-02-13 09:46:00,36.3,5.6,23.92,SSW,205,8.7,10.1,27,0.00,,---,0.00,VWS V14.01,2013-02-13 16:46:00,
2013-02-13 09:52:00,36.3,7.1,23.92,SW,227,8.3,8.3,29,0.00,,---,0.00,VWS V14.01,2013-02-13 16:52:00,
2013-02-13 09:58:00,36.1,7.0,23.92,SSW,203,3.6,8.1,29,0.00,,---,0.00,VWS V14.01,2013-02-13 16:58:00,
2013-02-13 10:03:00,35.8,6.7,23.92,SSE,153,7.6,8.3,29,0.00,,---,0.00,VWS V14.01,2013-02-13 17:03:00,
2013-02-13 10:09:00,35.8,6.7,23.92,SSW,203,3.6,9.6,29,0.00,,---,0.00,VWS V14.01,2013-02-13 17:09:00,
2013-02-13 10:15:00,35.8,6.7,23.92,SSW,205,7.6,7.6,29,0.00,,---,0.00,VWS V14.01,2013-02-13 17:15:00,
2013-02-13 10:21:00,35.8,6.7,23.92,SSW,204,6.3,6.3,29,0.00,,---,0.00,VWS V14.01,2013-02-13 17:21:00,
2013-02-13 10:26:00,35.8,6.7,23.92,SSW,199,8.3,10.1,29,0.00,,---,0.00,VWS V14.01,2013-02-13 17:26:00,
2013-02-13 10:32:00,35.8,6.7,23.92,SSW,198,6.3,6.3,29,0.00,,---,0.00,VWS V14.01,2013-02-13 17:32:00,
2013-02-13 10:38:00,35.8,6.7,23.92,South,177,8.7,13.2,29,0.00,,---,0.00,VWS V14.01,2013-02-13 17:38:00,
2013-02-13 10:44:00,35.8,6.7,23.92,East,87,8.1,8.1,29,0.00,,---,0.00,VWS V14.01,2013-02-13 17:44:00,
2013-02-13 10:50:00,36.0,6.8,23.92,WNW,302,3.6,8.1,29,0.00,,---,0.00,VWS V14.01,2013-02-13 17:50:00,
2013-02-13 10:55:00,36.0,6.8,23.92,SSW,201,2.7,11.0,29,0.00,,---,0.00,VWS V14.01,2013-02-13 17:55:00,
2013-02-13 11:01:00,35.8,6.7,23.92,NNE,31,6.3,11.0,29,0.00,,---,0.00,VWS V14.01,2013-02-13 18:01:00,
2013-02-13 11:07:00,35.8,6.7,23.92,SSW,197,5.4,11.0,29,0.00,,---,0.00,VWS V14.01,2013-02-13 18:07:00,
2013-02-13 11:13:00,36.0,6.8,23.92,WSW,255,5.8,9.2,29,0.00,,---,0.00,VWS V14.01,2013-02-13 18:13:00,
2013-02-13 11:18:00,36.1,7.0,23.92,South,182,5.8,8.3,29,0.00,,---,0.00,VWS V14.01,2013-02-13 18:18:00,
2013-02-13 11:24:00,36.7,7.4,23.92,SSW,203,5.4,8.1,29,0.00,,---,0.00,VWS V14.01,2013-02-13 18:24:00,
2013-02-13 11:30:00,36.7,7.4,23.95,NNW,336,3.6,7.6,29,0.00,,---,0.00,VWS V14.01,2013-02-13 18:30:00,
2013-02-13 11:36:00,36.9,7.6,23.95,SSW,196,3.6,3.6,29,0.00,,---,0.00,VWS V14.01,2013-02-13 18:36:00,
2013-02-13 11:42:00,37.0,7.8,23.95,SSW,204,7.2,11.4,29,0.00,,---,0.00,VWS V14.01,2013-02-13 18:42:00,
2013-02-13 11:48:00,37.0,7.8,23.95,SSW,203,6.3,11.9,29,0.00,,---,0.00,VWS V14.01,2013-02-13 18:48:00,
2013-02-13 11:53:00,37.2,7.9,23.95,SSW,192,7.6,7.6,29,0.00,,---,0.00,VWS V14.01,2013-02-13 18:53:00,
2013-02-13 11:58:00,37.4,8.1,23.95,SW,225,8.7,12.8,29,0.00,,---,0.00,VWS V14.01,2013-02-13 18:58:00,
2013-02-13 12:03:00,37.4,8.1,23.95,SSW,213,10.1,11.0,29,0.00,,---,0.00,VWS V14.01,2013-02-13 19:03:00,
2013-02-13 12:09:00,37.4,8.1,23.95,WSW,238,5.4,8.1,29,0.00,,---,0.00,VWS V14.01,2013-02-13 19:09:00,
2013-02-13 12:15:00,37.8,8.4,23.95,WSW,247,11.0,11.0,29,0.00,,---,0.00,VWS V14.01,2013-02-13 19:15:00,
2013-02-13 12:21:00,38.3,8.8,23.95,NW,325,2.2,5.8,29,0.00,,---,0.00,VWS V14.01,2013-02-13 19:21:00,
2013-02-13 12:27:00,39.0,9.5,23.92,SSW,196,8.3,8.3,29,0.00,,---,0.00,VWS V14.01,2013-02-13 19:27:00,
2013-02-13 12:33:00,39.0,9.5,23.92,WSW,245,7.2,7.2,29,0.00,,---,0.00,VWS V14.01,2013-02-13 19:33:00,
2013-02-13 12:38:00,39.4,9.0,23.92,NNW,331,4.9,14.5,28,0.00,,---,0.00,VWS V14.01,2013-02-13 19:38:00,
2013-02-13 12:44:00,39.4,9.0,23.92,ESE,109,3.1,9.6,28,0.00,,---,0.00,VWS V14.01,2013-02-13 19:44:00,
2013-02-13 12:50:00,39.2,8.9,23.92,NNW,335,2.7,6.3,28,0.00,,---,0.00,VWS V14.01,2013-02-13 19:50:00,
2013-02-13 12:56:00,39.9,9.5,23.92,WSW,246,5.8,8.1,28,0.00,,---,0.00,VWS V14.01,2013-02-13 19:56:00,
2013-02-13 13:01:00,41.0,10.4,23.92,South,171,4.0,5.4,28,0.00,,---,0.00,VWS V14.01,2013-02-13 20:01:00,
2013-02-13 13:07:00,41.9,11.2,23.92,ESE,115,4.0,6.7,28,0.00,,---,0.00,VWS V14.01,2013-02-13 20:07:00,
2013-02-13 13:13:00,41.2,8.9,23.92,NW,315,8.3,8.3,26,0.00,,---,0.00,VWS V14.01,2013-02-13 20:13:00,
2013-02-13 13:19:00,39.6,7.5,23.92,WSW,258,7.2,11.9,26,0.00,,---,0.00,VWS V14.01,2013-02-13 20:19:00,
2013-02-13 13:25:00,38.7,9.2,23.92,SSE,167,0.0,3.1,29,0.00,,---,0.00,VWS V14.01,2013-02-13 20:25:00,
2013-02-13 13:30:00,38.5,9.0,23.92,WSW,240,3.6,4.0,29,0.00,,---,0.00,VWS V14.01,2013-02-13 20:30:00,
2013-02-13 13:36:00,38.1,6.3,23.92,NNE,22,8.1,8.7,26,0.00,,---,0.00,VWS V14.01,2013-02-13 20:36:00,
2013-02-13 13:42:00,38.1,8.7,23.95,SE,129,0.0,3.1,29,0.00,,---,0.00,VWS V14.01,2013-02-13 20:42:00,
2013-02-13 13:48:00,38.3,8.8,23.95,SW,232,5.8,5.8,29,0.00,,---,0.00,VWS V14.01,2013-02-13 20:48:00,
2013-02-13 13:54:00,38.7,9.2,23.95,SSW,208,4.0,8.1,29,0.00,,---,0.00,VWS V14.01,2013-02-13 20:54:00,
2013-02-13 13:59:00,38.7,9.2,23.95,South,169,2.7,5.4,29,0.00,,---,0.00,VWS V14.01,2013-02-13 20:59:00,
2013-02-13 14:04:00,38.8,9.3,23.95,SW,234,2.7,4.9,29,0.00,,---,0.00,VWS V14.01,2013-02-13 21:04:00,
2013-02-13 14:10:00,39.2,8.9,23.92,SW,216,5.4,12.8,28,0.00,,---,0.00,VWS V14.01,2013-02-13 21:10:00,
2013-02-13 14:16:00,38.8,9.3,23.92,NNW,332,6.3,7.6,29,0.00,,---,0.00,VWS V14.01,2013-02-13 21:16:00,
2013-02-13 14:21:00,38.8,9.3,23.92,South,175,11.0,11.9,29,0.00,,---,0.00,VWS V14.01,2013-02-13 21:21:00,
2013-02-13 14:27:00,38.8,9.3,23.92,SSE,163,6.3,10.5,29,0.00,,---,0.00,VWS V14.01,2013-02-13 21:27:00,
2013-02-13 14:33:00,38.7,9.2,23.92,South,186,7.6,11.0,29,0.00,,---,0.00,VWS V14.01,2013-02-13 21:33:00,
2013-02-13 14:39:00,38.1,8.7,23.92,WSW,250,4.0,8.7,29,0.00,,---,0.00,VWS V14.01,2013-02-13 21:39:00,
2013-02-13 14:45:00,37.8,8.4,23.92,SSW,212,5.4,8.7,29,0.00,,---,0.00,VWS V14.01,2013-02-13 21:45:00,
2013-02-13 14:51:00,37.6,8.2,23.92,West,281,8.3,8.3,29,0.00,,---,0.00,VWS V14.01,2013-02-13 21:51:00,
2013-02-13 14:56:00,37.6,8.2,23.92,NNW,335,4.0,6.3,29,0.00,,---,0.00,VWS V14.01,2013-02-13 21:56:00,
2013-02-13 15:02:00,37.4,8.1,23.92,SSE,150,8.7,10.5,29,0.00,,---,0.00,VWS V14.01,2013-02-13 22:02:00,
2013-02-13 15:08:00,37.4,8.1,23.92,SSW,200,8.3,8.3,29,0.00,,---,0.00,VWS V14.01,2013-02-13 22:08:00,
2013-02-13 15:13:00,37.6,8.2,23.92,East,101,5.8,8.7,29,0.00,,---,0.00,VWS V14.01,2013-02-13 22:13:00,
2013-02-13 15:19:00,37.6,8.2,23.92,SSW,204,6.3,8.3,29,0.00,,---,0.00,VWS V14.01,2013-02-13 22:19:00,
2013-02-13 15:25:00,37.6,8.2,23.92,SW,223,3.6,6.3,29,0.00,,---,0.00,VWS V14.01,2013-02-13 22:25:00,
2013-02-13 15:30:00,37.8,8.4,23.92,WSW,250,10.1,10.1,29,0.00,,---,0.00,VWS V14.01,2013-02-13 22:30:00,
2013-02-13 15:36:00,37.9,8.5,23.92,SSW,198,6.3,14.5,29,0.00,,---,0.00,VWS V14.01,2013-02-13 22:36:00,
2013-02-13 15:42:00,38.1,8.7,23.92,SSW,195,10.1,10.1,29,0.00,,---,0.00,VWS V14.01,2013-02-13 22:42:00,
2013-02-13 15:48:00,38.3,8.8,23.92,WNW,285,5.4,11.0,29,0.00,,---,0.00,VWS V14.01,2013-02-13 22:48:00,
2013-02-13 15:54:00,38.5,9.0,23.92,SW,216,9.6,19.7,29,0.00,,---,0.00,VWS V14.01,2013-02-13 22:54:00,
2013-02-13 15:59:00,38.5,9.0,23.92,South,180,6.3,8.7,29,0.00,,---,0.00,VWS V14.01,2013-02-13 22:59:00,
2013-02-13 16:05:00,38.5,9.0,23.92,West,272,4.0,10.5,29,0.00,,---,0.00,VWS V14.01,2013-02-13 23:05:00,
2013-02-13 16:10:00,38.5,9.0,23.92,SSE,149,3.1,13.2,29,0.00,,---,0.00,VWS V14.01,2013-02-13 23:10:00,
2013-02-13 16:16:00,38.5,9.0,23.92,SSE,159,8.1,8.1,29,0.00,,---,0.00,VWS V14.01,2013-02-13 23:16:00,
2013-02-13 16:22:00,38.3,8.8,23.92,NNE,27,5.8,5.8,29,0.00,,---,0.00,VWS V14.01,2013-02-13 23:22:00,
2013-02-13 16:28:00,38.3,8.8,23.92,SSW,195,5.4,8.7,29,0.00,,---,0.00,VWS V14.01,2013-02-13 23:28:00,
2013-02-13 16:34:00,38.1,8.7,23.92,SSE,151,6.3,8.3,29,0.00,,---,0.00,VWS V14.01,2013-02-13 23:34:00,
2013-02-13 16:40:00,37.9,8.5,23.92,SW,220,2.7,7.6,29,0.00,,---,0.00,VWS V14.01,2013-02-13 23:40:00,
2013-02-13 16:46:00,37.9,8.5,23.92,NNE,32,4.0,8.3,29,0.00,,---,0.00,VWS V14.01,2013-02-13 23:46:00,
2013-02-13 16:52:00,37.9,8.5,23.92,West,276,7.6,9.6,29,0.00,,---,0.00,VWS V14.01,2013-02-13 23:52:00,
2013-02-13 16:58:00,37.8,8.4,23.92,SSE,154,3.1,4.9,29,0.00,,---,0.00,VWS V14.01,2013-02-13 23:58:00,
2013-02-13 17:03:00,37.6,8.2,23.92,SW,236,5.4,10.1,29,0.00,,---,0.00,VWS V14.01,2013-02-14 00:03:00,
2013-02-13 17:09:00,37.6,8.2,23.92,WNW,288,4.9,4.9,29,0.00,,---,0.00,VWS V14.01,2013-02-14 00:09:00,
2013-02-13 17:15:00,37.8,8.4,23.92,WNW,292,3.1,10.5,29,0.00,,---,0.00,VWS V14.01,2013-02-14 00:15:00,
2013-02-13 17:21:00,37.6,8.2,23.92,West,262,5.8,5.8,29,0.00,,---,0.00,VWS V14.01,2013-02-14 00:21:00,
2013-02-13 17:27:00,37.6,8.2,23.92,West,273,3.1,6.3,29,0.00,,---,0.00,VWS V14.01,2013-02-14 00:27:00,
2013-02-13 17:32:00,37.6,8.2,23.92,NNW,340,8.3,9.6,29,0.00,,---,0.00,VWS V14.01,2013-02-14 00:32:00,
2013-02-13 17:38:00,37.6,8.2,23.92,WNW,283,2.7,8.1,29,0.00,,---,0.00,VWS V14.01,2013-02-14 00:38:00,
2013-02-13 17:44:00,37.4,8.1,23.92,South,175,2.7,2.7,29,0.00,,---,0.00,VWS V14.01,2013-02-14 00:44:00,
2013-02-13 17:50:00,36.7,7.4,23.92,WSW,250,4.9,5.8,29,0.00,,---,0.00,VWS V14.01,2013-02-14 00:50:00,
2013-02-13 17:55:00,36.9,7.6,23.92,SSW,200,0.0,7.2,29,0.00,,---,0.00,VWS V14.01,2013-02-14 00:55:00,
2013-02-13 18:01:00,36.9,7.6,23.92,WSW,246,3.6,6.3,29,0.00,,---,0.00,VWS V14.01,2013-02-14 01:01:00,
2013-02-13 18:07:00,36.9,7.6,23.92,SSW,211,3.1,5.4,29,0.00,,---,0.00,VWS V14.01,2013-02-14 01:07:00,
2013-02-13 18:13:00,36.3,7.1,23.92,SW,220,2.2,5.4,29,0.00,,---,0.00,VWS V14.01,2013-02-14 01:13:00,
2013-02-13 18:18:00,36.0,6.8,23.92,SSW,207,2.7,3.1,29,0.00,,---,0.00,VWS V14.01,2013-02-14 01:18:00,
2013-02-13 18:24:00,35.2,6.9,23.92,WSW,238,2.7,2.7,30,0.00,,---,0.00,VWS V14.01,2013-02-14 01:24:00,
2013-02-13 18:30:00,35.1,6.8,23.92,ESE,112,4.9,4.9,30,0.00,,---,0.00,VWS V14.01,2013-02-14 01:30:00,
2013-02-13 18:36:00,35.6,7.2,23.92,SSE,150,3.1,8.1,30,0.00,,---,0.00,VWS V14.01,2013-02-14 01:36:00,
2013-02-13 18:42:00,36.3,7.9,23.95,South,179,8.1,8.1,30,0.00,,---,0.00,VWS V14.01,2013-02-14 01:42:00,
2013-02-13 18:48:00,36.5,8.0,23.95,NNW,339,2.2,3.1,30,0.00,,---,0.00,VWS V14.01,2013-02-14 01:48:00,
2013-02-13 18:53:00,36.3,7.9,23.95,South,171,4.0,4.0,30,0.00,,---,0.00,VWS V14.01,2013-02-14 01:53:00,
2013-02-13 18:59:00,36.5,7.3,23.95,SW,215,15.0,15.4,29,0.00,,---,0.00,VWS V14.01,2013-02-14 01:59:00,
2013-02-13 19:04:00,36.9,7.6,23.95,SSE,167,8.3,8.3,29,0.00,,---,0.00,VWS V14.01,2013-02-14 02:04:00,
2013-02-13 19:09:00,36.7,7.4,23.95,West,266,4.9,8.1,29,0.00,,---,0.00,VWS V14.01,2013-02-14 02:09:00,
2013-02-13 19:15:00,36.7,7.4,23.95,SSE,159,3.6,4.9,29,0.00,,---,0.00,VWS V14.01,2013-02-14 02:15:00,
2013-02-13 19:21:00,36.5,7.3,23.95,SSE,149,5.8,11.0,29,0.00,,---,0.00,VWS V14.01,2013-02-14 02:21:00,
2013-02-13 19:26:00,36.3,7.1,23.95,South,173,6.3,8.1,29,0.00,,---,0.00,VWS V14.01,2013-02-14 02:26:00,
2013-02-13 19:31:00,36.5,7.3,23.95,SW,221,5.4,5.4,29,0.00,,---,0.00,VWS V14.01,2013-02-14 02:31:00,
2013-02-13 19:37:00,36.7,7.4,23.95,SSW,198,6.3,6.3,29,0.00,,---,0.00,VWS V14.01,2013-02-14 02:37:00,
2013-02-13 19:43:00,36.5,7.3,23.95,SSW,211,3.6,5.8,29,0.00,,---,0.00,VWS V14.01,2013-02-14 02:43:00,
2013-02-13 19:49:00,36.5,7.3,23.95,SSW,211,5.8,7.6,29,0.00,,---,0.00,VWS V14.01,2013-02-14 02:49:00,
2013-02-13 19:54:00,36.3,7.1,23.95,SW,231,5.4,5.4,29,0.00,,---,0.00,VWS V14.01,2013-02-14 02:54:00,
2013-02-13 20:00:00,36.1,7.7,23.95,South,190,5.4,5.8,30,0.00,,---,0.00,VWS V14.01,2013-02-14 03:00:00,
2013-02-13 20:06:00,35.8,7.4,23.95,ESE,105,4.0,6.3,30,0.00,,---,0.00,VWS V14.01,2013-02-14 03:06:00,
2013-02-13 20:12:00,35.6,7.2,23.95,SE,129,3.6,5.8,30,0.00,,---,0.00,VWS V14.01,2013-02-14 03:12:00,
2013-02-13 20:17:00,35.6,7.2,23.95,West,273,4.0,5.8,30,0.00,,---,0.00,VWS V14.01,2013-02-14 03:17:00,
2013-02-13 20:23:00,36.0,7.6,23.95,SW,236,4.0,4.0,30,0.00,,---,0.00,VWS V14.01,2013-02-14 03:23:00,
2013-02-13 20:29:00,35.6,7.2,23.95,South,176,4.0,5.4,30,0.00,,---,0.00,VWS V14.01,2013-02-14 03:29:00,
2013-02-13 20:34:00,35.6,7.2,23.95,SSE,164,3.1,5.8,30,0.00,,---,0.00,VWS V14.01,2013-02-14 03:34:00,
2013-02-13 20:40:00,35.6,7.2,23.95,South,186,8.1,8.1,30,0.00,,---,0.00,VWS V14.01,2013-02-14 03:40:00,
2013-02-13 20:46:00,35.6,7.2,23.95,South,173,5.8,8.1,30,0.00,,---,0.00,VWS V14.01,2013-02-14 03:46:00,
2013-02-13 20:52:00,35.8,7.4,23.95,WSW,250,3.6,5.4,30,0.00,,---,0.00,VWS V14.01,2013-02-14 03:52:00,
2013-02-13 20:58:00,35.6,7.2,23.95,SSW,200,5.8,5.8,30,0.00,,---,0.00,VWS V14.01,2013-02-14 03:58:00,
2013-02-13 21:04:00,35.6,7.2,23.95,WSW,248,3.6,4.9,30,0.00,,---,0.00,VWS V14.01,2013-02-14 04:04:00,
2013-02-13 21:10:00,35.4,7.1,23.95,SSE,161,2.2,2.7,30,0.00,,---,0.00,VWS V14.01,2013-02-14 04:10:00,
2013-02-13 21:16:00,35.2,6.9,23.95,WNW,299,2.7,2.7,30,0.00,,---,0.00,VWS V14.01,2013-02-14 04:16:00,
2013-02-13 21:21:00,34.9,6.6,23.95,SE,136,4.0,5.4,30,0.00,,---,0.00,VWS V14.01,2013-02-14 04:21:00,
2013-02-13 21:27:00,35.1,6.8,23.95,SE,142,2.7,4.0,30,0.00,,---,0.00,VWS V14.01,2013-02-14 04:27:00,
2013-02-13 21:33:00,35.4,7.1,23.95,SSW,194,2.7,4.0,30,0.00,,---,0.00,VWS V14.01,2013-02-14 04:33:00,
2013-02-13 21:39:00,35.4,7.1,23.95,West,273,4.0,4.9,30,0.00,,---,0.00,VWS V14.01,2013-02-14 04:39:00,
2013-02-13 21:45:00,35.8,7.4,23.95,SW,218,3.1,5.4,30,0.00,,---,0.00,VWS V14.01,2013-02-14 04:45:00,
2013-02-13 21:51:00,35.4,7.1,23.95,SSW,202,0.0,0.0,30,0.00,,---,0.00,VWS V14.01,2013-02-14 04:51:00,
2013-02-13 21:57:00,35.4,7.1,23.95,SSE,158,5.4,5.4,30,0.00,,---,0.00,VWS V14.01,2013-02-14 04:57:00,
2013-02-13 22:00:00,35.4,7.1,23.95,SSE,165,2.2,10.1,30,0.00,,---,0.00,VWS V14.01,2013-02-14 05:00:00,
2013-02-13 22:04:00,35.8,7.4,23.95,SSE,158,2.7,5.4,30,0.00,,---,0.00,VWS V14.01,2013-02-14 05:04:00,
2013-02-13 22:05:00,36.0,7.6,23.95,WNW,283,3.6,3.6,30,0.00,,---,0.00,VWS V14.01,2013-02-14 05:05:00,
2013-02-13 22:06:00,36.0,7.6,23.95,SW,214,3.6,4.9,30,0.00,,---,0.00,VWS V14.01,2013-02-14 05:06:00,
2013-02-13 22:11:00,35.8,7.4,23.95,SW,220,5.8,6.3,30,0.00,,---,0.00,VWS V14.01,2013-02-14 05:11:00,
2013-02-13 22:17:00,35.6,7.2,23.95,SW,226,4.9,5.8,30,0.00,,---,0.00,VWS V14.01,2013-02-14 05:17:00,
2013-02-13 22:23:00,35.4,7.1,23.95,SSW,207,3.6,4.0,30,0.00,,---,0.00,VWS V14.01,2013-02-14 05:23:00,
2013-02-13 22:29:00,35.4,7.1,23.95,SSE,156,3.1,10.1,30,0.00,,---,0.00,VWS V14.01,2013-02-14 05:29:00,
2013-02-13 22:35:00,36.0,7.6,23.95,South,187,2.7,4.0,30,0.00,,---,0.00,VWS V14.01,2013-02-14 05:35:00,
2013-02-13 22:40:00,36.1,7.0,23.95,South,173,7.6,7.6,29,0.00,,---,0.00,VWS V14.01,2013-02-14 05:40:00,
2013-02-13 22:46:00,36.7,7.4,23.95,South,180,2.7,3.6,29,0.00,,---,0.00,VWS V14.01,2013-02-14 05:46:00,
2013-02-13 22:51:00,36.5,7.3,23.95,SSW,210,2.2,4.9,29,0.00,,---,0.00,VWS V14.01,2013-02-14 05:51:00,
2013-02-13 22:57:00,36.3,7.1,23.95,SSW,213,0.0,2.7,29,0.00,,---,0.00,VWS V14.01,2013-02-14 05:57:00,
2013-02-13 23:03:00,35.8,7.4,23.95,South,181,3.1,3.6,30,0.00,,---,0.00,VWS V14.01,2013-02-14 06:03:00,
2013-02-13 23:08:00,35.4,7.1,23.95,SW,220,4.0,4.0,30,0.00,,---,0.00,VWS V14.01,2013-02-14 06:08:00,
2013-02-13 23:14:00,35.8,6.7,23.95,SW,234,3.6,8.1,29,0.00,,---,0.00,VWS V14.01,2013-02-14 06:14:00,
2013-02-13 23:20:00,36.3,7.1,23.95,SSE,150,0.0,0.0,29,0.00,,---,0.00,VWS V14.01,2013-02-14 06:20:00,
2013-02-13 23:26:00,36.3,7.1,23.95,NNE,32,0.0,0.0,29,0.00,,---,0.00,VWS V14.01,2013-02-14 06:26:00,
2013-02-13 23:31:00,36.0,6.8,23.95,NNE,32,0.0,0.0,29,0.00,,---,0.00,VWS V14.01,2013-02-14 06:31:00,
2013-02-13 23:37:00,35.2,6.9,23.95,ESE,104,0.0,3.6,30,0.00,,---,0.00,VWS V14.01,2013-02-14 06:37:00,
2013-02-13 23:43:00,35.2,6.9,23.95,SSW,204,4.0,5.4,30,0.00,,---,0.00,VWS V14.01,2013-02-14 06:43:00,
2013-02-13 23:49:00,36.0,6.8,23.95,SSW,197,2.7,6.3,29,0.00,,---,0.00,VWS V14.01,2013-02-14 06:49:00,
2013-02-13 23:55:00,36.3,7.1,23.95,SSW,208,2.2,2.7,29,0.00,,---,0.00,VWS V14.01,2013-02-14 06:55:00,